Time,TemperatureF,DewpointF,PressureIn,WindDirection,WindDirectionDegrees,WindSpeedMPH,WindSpeedGustMPH,Humidity,HourlyPrecipIn,Conditions,Clouds,dailyrainin,SoftwareType,DateUTC
2013-07-17 00:14:00,74.3,63.5,31.74,North,0,0.0,0.0,69,0.00,,SCT070,0.00,VWS V14.00,2013-07-17 04:14:00,
2013-07-17 00:29:00,73.9,64.3,31.74,North,0,0.0,0.0,72,0.00,,SCT070,0.00,VWS V14.00,2013-07-17 04:29:00,
2013-07-17 00:44:00,73.6,64.8,31.74,North,0,0.0,0.0,74,0.00,,SCT070,0.00,VWS V14.00,2013-07-17 04:44:00,
2013-07-17 00:59:00,73.2,64.8,31.74,North,0,0.0,0.0,75,0.00,,BKN060,0.00,VWS V14.00,2013-07-17 04:59:00,
2013-07-17 01:14:00,73.0,65.4,31.74,North,0,0.0,0.0,77,0.00,,BKN060,0.00,VWS V14.00,2013-07-17 05:14:00,
2013-07-17 01:29:00,73.2,66.0,31.74,North,0,0.0,0.0,78,0.00,,BKN060,0.00,VWS V14.00,2013-07-17 05:29:00,
2013-07-17 01:44:00,73.8,66.5,31.74,North,0,0.0,0.0,78,0.00,,BKN060,0.00,VWS V14.00,2013-07-17 05:44:00,
2013-07-17 01:59:00,73.9,66.7,31.74,North,0,0.0,0.0,78,0.00,,,0.00,VWS V14.00,2013-07-17 05:59:00,
2013-07-17 02:14:00,73.8,66.1,31.74,North,0,0.0,0.0,77,0.00,,,0.00,VWS V14.00,2013-07-17 06:14:00,
2013-07-17 02:29:00,73.6,65.9,31.74,North,0,0.0,0.0,77,0.00,,,0.00,VWS V14.00,2013-07-17 06:29:00,
2013-07-17 02:44:00,73.0,66.2,31.74,North,0,0.0,0.0,79,0.00,,,0.00,VWS V14.00,2013-07-17 06:44:00,
2013-07-17 02:59:00,72.9,66.3,31.74,North,0,0.0,0.0,80,0.00,,,0.00,VWS V14.00,2013-07-17 06:59:00,
2013-07-17 03:14:00,72.9,66.3,31.74,North,0,0.0,0.0,80,0.00,,,0.00,VWS V14.00,2013-07-17 07:14:00,
2013-07-17 03:29:00,72.5,65.6,31.74,North,0,0.0,0.0,79,0.00,,,0.00,VWS V14.00,2013-07-17 07:29:00,
2013-07-17 03:45:00,72.1,65.3,31.74,North,0,0.0,0.0,79,0.00,,,0.00,VWS V14.00,2013-07-17 07:45:00,
2013-07-17 03:59:00,71.8,64.9,31.74,North,0,0.0,0.0,79,0.00,,,0.00,VWS V14.00,2013-07-17 07:59:00,
2013-07-17 04:14:00,71.4,64.9,31.74,North,0,0.0,0.0,80,0.00,,,0.00,VWS V14.00,2013-07-17 08:14:00,
2013-07-17 04:29:00,71.1,64.9,31.74,North,0,0.0,0.0,81,0.00,,,0.00,VWS V14.00,2013-07-17 08:29:00,
2013-07-17 04:45:00,71.1,64.9,31.74,North,0,0.0,0.0,81,0.00,,,0.00,VWS V14.00,2013-07-17 08:45:00,
2013-07-17 05:00:00,70.9,65.1,31.74,North,0,0.0,0.0,82,0.00,,,0.00,VWS V14.00,2013-07-17 09:00:00,
2013-07-17 05:14:00,70.7,64.9,31.74,North,0,0.0,0.0,82,0.00,,,0.00,VWS V14.00,2013-07-17 09:14:00,
2013-07-17 05:30:00,70.5,65.1,31.74,North,0,0.0,0.0,83,0.00,,,0.00,VWS V14.00,2013-07-17 09:30:00,
2013-07-17 05:45:00,70.7,65.3,31.74,North,0,0.0,0.0,83,0.00,,,0.00,VWS V14.00,2013-07-17 09:45:00,
2013-07-17 06:00:00,70.3,64.9,31.74,North,0,0.0,0.0,83,0.00,,,0.00,VWS V14.00,2013-07-17 10:00:00,
2013-07-17 06:15:00,70.2,64.8,31.74,North,0,0.0,0.0,83,0.00,,,0.00,VWS V14.00,2013-07-17 10:15:00,
2013-07-17 06:30:00,70.3,65.3,31.74,North,0,0.0,0.0,84,0.00,,,0.00,VWS V14.00,2013-07-17 10:30:00,
2013-07-17 06:45:00,70.9,65.8,31.74,North,0,0.0,0.0,84,0.00,,,0.00,VWS V14.00,2013-07-17 10:45:00,
2013-07-17 07:00:00,71.8,66.7,31.74,North,0,0.0,0.0,84,0.00,,,0.00,VWS V14.00,2013-07-17 11:00:00,
2013-07-17 07:15:00,73.2,68.1,31.74,North,0,0.0,0.0,84,0.00,,,0.00,VWS V14.00,2013-07-17 11:15:00,
2013-07-17 07:30:00,73.9,68.1,31.74,North,0,0.0,0.0,82,0.00,,,0.00,VWS V14.00,2013-07-17 11:30:00,
2013-07-17 07:45:00,75.0,68.4,31.74,North,0,0.0,0.0,80,0.00,,,0.00,VWS V14.00,2013-07-17 11:45:00,
2013-07-17 08:00:00,76.5,67.9,31.74,North,0,0.0,0.0,75,0.00,,,0.00,VWS V14.00,2013-07-17 12:00:00,
2013-07-17 08:15:00,77.9,67.3,31.74,North,0,0.0,0.0,70,0.00,,,0.00,VWS V14.00,2013-07-17 12:15:00,
2013-07-17 08:30:00,79.0,67.5,31.74,North,0,0.0,0.0,68,0.00,,,0.00,VWS V14.00,2013-07-17 12:30:00,
2013-07-17 08:45:00,80.6,68.2,31.74,North,0,0.0,0.0,66,0.00,,,0.00,VWS V14.00,2013-07-17 12:45:00,
2013-07-17 09:00:00,82.0,66.8,31.74,North,0,0.0,0.0,60,0.00,,,0.00,VWS V14.00,2013-07-17 13:00:00,
2013-07-17 09:15:00,83.7,56.8,31.74,North,0,0.0,0.0,40,0.00,,,0.00,VWS V14.00,2013-07-17 13:15:00,
2013-07-17 09:30:00,84.7,49.9,31.74,North,0,0.0,0.0,30,0.00,,CLR,0.00,VWS V14.00,2013-07-17 13:30:00,
2013-07-17 09:44:00,85.3,49.5,31.74,North,0,0.0,0.0,29,0.00,,CLR,0.00,VWS V14.00,2013-07-17 13:44:00,
2013-07-17 09:59:00,86.5,46.6,31.74,North,0,0.0,0.0,25,0.00,,CLR,0.00,VWS V14.00,2013-07-17 13:59:00,
2013-07-17 10:14:00,87.3,43.8,31.74,North,0,0.0,0.0,22,0.00,,CLR,0.00,VWS V14.00,2013-07-17 14:14:00,
2013-07-17 10:30:00,88.0,41.9,31.74,North,0,0.0,0.0,20,0.00,,CLR,0.00,VWS V14.00,2013-07-17 14:30:00,
2013-07-17 10:44:00,88.5,41.0,31.74,North,0,0.0,0.0,19,0.00,,CLR,0.00,VWS V14.00,2013-07-17 14:44:00,
2013-07-17 10:59:00,89.4,41.8,31.74,North,0,0.0,0.0,19,0.00,,CLR,0.00,VWS V14.00,2013-07-17 14:59:00,
2013-07-17 11:14:00,90.0,40.8,31.74,North,0,0.0,0.0,18,0.00,,CLR,0.00,VWS V14.00,2013-07-17 15:14:00,
2013-07-17 11:29:00,90.3,41.1,31.74,North,0,0.0,0.0,18,0.00,,CLR,0.00,VWS V14.00,2013-07-17 15:29:00,
2013-07-17 11:44:00,92.3,41.2,31.74,North,0,0.0,0.0,17,0.00,,CLR,0.00,VWS V14.00,2013-07-17 15:44:00,
2013-07-17 11:59:00,92.8,41.7,31.74,North,0,0.0,0.0,17,0.00,,CLR,0.00,VWS V14.00,2013-07-17 15:59:00,
2013-07-17 12:14:00,92.1,41.1,31.74,North,0,0.0,0.0,17,0.00,,CLR,0.00,VWS V14.00,2013-07-17 16:14:00,
2013-07-17 12:29:00,92.5,41.4,31.74,North,0,0.0,0.0,17,0.00,,CLR,0.00,VWS V14.00,2013-07-17 16:29:00,
2013-07-17 12:44:00,94.6,41.5,31.74,North,0,0.0,0.0,16,0.00,,CLR,0.00,VWS V14.00,2013-07-17 16:44:00,
2013-07-17 12:59:00,94.8,38.2,31.74,North,0,0.0,0.0,14,0.00,,CLR,0.00,VWS V14.00,2013-07-17 16:59:00,
2013-07-17 13:14:00,95.2,38.5,31.74,North,0,0.0,0.0,14,0.00,,CLR,0.00,VWS V14.00,2013-07-17 17:14:00,
2013-07-17 13:30:00,95.7,39.0,31.74,North,0,0.0,0.0,14,0.00,,CLR,0.00,VWS V14.00,2013-07-17 17:30:00,
2013-07-17 13:44:00,96.3,39.4,31.74,North,0,0.0,0.0,14,0.00,,CLR,0.00,VWS V14.00,2013-07-17 17:44:00,
2013-07-17 13:59:00,94.1,37.7,31.74,North,0,0.0,0.0,14,0.00,,CLR,0.00,VWS V14.00,2013-07-17 17:59:00,
2013-07-17 14:14:00,93.2,37.0,31.74,North,0,0.0,0.0,14,0.00,,CLR,0.00,VWS V14.00,2013-07-17 18:14:00,
2013-07-17 14:29:00,95.0,41.8,31.74,North,0,0.0,0.0,16,0.00,,CLR,0.00,VWS V14.00,2013-07-17 18:29:00,
2013-07-17 14:44:00,94.8,38.2,31.74,North,0,0.0,0.0,14,0.00,,CLR,0.00,VWS V14.00,2013-07-17 18:44:00,
2013-07-17 14:59:00,97.2,38.2,31.74,North,0,0.0,0.0,13,0.00,,CLR,0.00,VWS V14.00,2013-07-17 18:59:00,
2013-07-17 15:14:00,99.5,40.0,31.74,North,0,0.0,0.0,13,0.00,,CLR,0.00,VWS V14.00,2013-07-17 19:14:00,
2013-07-17 15:29:00,100.0,40.4,31.74,North,0,0.0,0.0,13,0.00,,CLR,0.00,VWS V14.00,2013-07-17 19:29:00,
2013-07-17 15:44:00,99.0,39.6,31.74,North,0,0.0,0.0,13,0.00,,CLR,0.00,VWS V14.00,2013-07-17 19:44:00,
2013-07-17 15:59:00,97.9,34.5,31.74,North,0,0.0,0.0,11,0.00,,CLR,0.00,VWS V14.00,2013-07-17 19:59:00,
2013-07-17 16:14:00,96.3,39.4,31.74,North,0,0.0,0.0,14,0.00,,CLR,0.00,VWS V14.00,2013-07-17 20:14:00,
2013-07-17 16:29:00,99.5,33.4,31.74,North,0,0.0,0.0,10,0.00,,CLR,0.00,VWS V14.00,2013-07-17 20:29:00,
2013-07-17 16:45:00,100.6,34.2,31.74,North,0,0.0,0.0,10,0.00,,CLR,0.00,VWS V14.00,2013-07-17 20:45:00,
2013-07-17 16:59:00,101.3,39.3,31.74,North,0,0.0,0.0,12,0.00,,CLR,0.00,VWS V14.00,2013-07-17 20:59:00,
2013-07-17 17:14:00,100.9,34.5,31.74,North,0,0.0,0.0,10,0.00,,CLR,0.00,VWS V14.00,2013-07-17 21:14:00,
2013-07-17 17:30:00,99.5,33.4,31.74,North,0,0.0,0.0,10,0.00,,CLR,0.00,VWS V14.00,2013-07-17 21:30:00,
2013-07-17 17:45:00,98.4,34.9,31.74,North,0,0.0,0.0,11,0.00,,CLR,0.00,VWS V14.00,2013-07-17 21:45:00,
2013-07-17 18:00:00,97.5,38.5,31.74,North,0,0.0,0.0,13,0.00,,FEW055,0.00,VWS V14.00,2013-07-17 22:00:00,
2013-07-17 18:15:00,99.0,33.0,31.74,North,0,0.0,0.0,10,0.00,,FEW055,0.00,VWS V14.00,2013-07-17 22:15:00,
2013-07-17 18:30:00,99.1,33.1,31.74,North,0,0.0,0.0,10,0.00,,FEW055,0.00,VWS V14.00,2013-07-17 22:30:00,
2013-07-17 18:45:00,96.3,39.4,31.74,North,0,0.0,0.0,14,0.00,,CLR,0.00,VWS V14.00,2013-07-17 22:45:00,
2013-07-17 19:00:00,92.3,42.7,31.74,North,0,0.0,0.0,18,0.00,,CLR,0.00,VWS V14.00,2013-07-17 23:00:00,
2013-07-17 19:15:00,90.3,50.8,31.74,North,0,0.0,0.0,26,0.00,,CLR,0.00,VWS V14.00,2013-07-17 23:15:00,
2013-07-17 19:30:00,90.1,49.6,31.74,North,0,0.0,0.0,25,0.00,,CLR,0.00,VWS V14.00,2013-07-17 23:30:00,
2013-07-17 19:45:00,89.1,50.8,31.74,North,0,0.0,0.0,27,0.00,,CLR,0.00,VWS V14.00,2013-07-17 23:45:00,
2013-07-17 20:00:00,87.3,52.1,31.74,North,0,0.0,0.0,30,0.00,,CLR,0.00,VWS V14.00,2013-07-18 00:00:00,
2013-07-17 20:15:00,86.4,54.7,31.74,North,0,0.0,0.0,34,0.00,,CLR,0.00,VWS V14.00,2013-07-18 00:15:00,
2013-07-17 20:30:00,85.8,55.0,31.74,North,0,0.0,0.0,35,0.00,,CLR,0.00,VWS V14.00,2013-07-18 00:30:00,
2013-07-17 20:45:00,83.8,69.0,31.74,North,0,0.0,0.0,61,0.00,,CLR,0.00,VWS V14.00,2013-07-18 00:45:00,
2013-07-17 21:00:00,83.3,68.5,31.74,North,0,0.0,0.0,61,0.00,,CLR,0.00,VWS V14.00,2013-07-18 01:00:00,
2013-07-17 21:15:00,83.1,66.3,31.74,North,0,0.0,0.0,57,0.00,,CLR,0.00,VWS V14.00,2013-07-18 01:15:00,
2013-07-17 21:30:00,82.4,65.7,31.74,North,0,0.0,0.0,57,0.00,,CLR,0.00,VWS V14.00,2013-07-18 01:30:00,
2013-07-17 21:45:00,81.1,68.3,31.74,North,0,0.0,0.0,65,0.00,,FEW055,0.00,VWS V14.00,2013-07-18 01:45:00,
2013-07-17 22:00:00,80.4,68.9,31.74,North,0,0.0,0.0,68,0.00,,FEW055,0.00,VWS V14.00,2013-07-18 02:00:00,
2013-07-17 22:15:00,79.7,68.6,31.74,North,0,0.0,0.0,69,0.00,,FEW055,0.00,VWS V14.00,2013-07-18 02:15:00,
2013-07-17 22:30:00,79.7,68.6,31.74,North,0,0.0,0.0,69,0.00,,FEW055,0.00,VWS V14.00,2013-07-18 02:30:00,
2013-07-17 22:45:00,79.2,68.1,31.74,North,0,0.0,0.0,69,0.00,,CLR,0.00,VWS V14.00,2013-07-18 02:45:00,
2013-07-17 23:00:00,79.7,67.8,31.74,North,0,0.0,0.0,67,0.00,,CLR,0.00,VWS V14.00,2013-07-18 03:00:00,
2013-07-17 23:15:00,79.3,67.0,31.74,North,0,0.0,0.0,66,0.00,,CLR,0.00,VWS V14.00,2013-07-18 03:15:00,
2013-07-17 23:30:00,79.0,67.1,31.74,North,0,0.0,0.0,67,0.00,,CLR,0.00,VWS V14.00,2013-07-18 03:30:00,
2013-07-17 23:44:00,78.6,66.8,31.74,North,0,0.0,0.0,67,0.00,,CLR,0.00,VWS V14.00,2013-07-18 03:44:00,
2013-07-17 23:59:00,77.9,66.5,31.74,North,0,0.0,0.0,68,0.00,,CLR,0.00,VWS V14.00,2013-07-18 03:59:00,